Time;durP1;ratioP1;P1;durP2;ratioP2;P2;SDS_P1;SDS_P2;PMS_P1;PMS_P2;Temp;Humidity;BMP_temperature;BMP_pressure;BME280_temperature;BME280_humidity;BME280_pressure;Samples;Min_cycle;Max_cycle;Signal;HPM_P1;HPM_P2
2022/01/30 00:00:39;;;;;;;40.50;5.85;;;;;;;;;;4970256;28;20117;-66
2022/01/30 00:03:05;;;;;;;38.38;6.85;;;;;;;;;;4971257;28;20095;-66
2022/01/30 00:05:33;;;;;;;43.67;6.97;;;;;;;;;;4974302;28;20031;-66
2022/01/30 00:07:59;;;;;;;42.15;5.63;;;;;;;;;;4960734;28;20031;-65
2022/01/30 00:10:25;;;;;;;46.58;7.47;;;;;;;;;;4979818;28;20135;-66
2022/01/30 00:12:55;;;;;;;39.85;7.80;;;;;;;;;;4970029;28;20042;-65
2022/01/30 00:15:37;;;;;;;43.05;6.63;;;;;;;;;;4961779;28;20020;-64
2022/01/30 00:18:21;;;;;;;36.20;6.97;;;;;;;;;;4964777;28;20035;-64
2022/01/30 00:21:00;;;;;;;52.22;7.88;;;;;;;;;;4972535;28;20157;-65
2022/01/30 00:23:28;;;;;;;35.55;6.43;;;;;;;;;;4967440;28;20262;-66
2022/01/30 00:25:56;;;;;;;38.35;6.32;;;;;;;;;;4970121;28;20101;-65
2022/01/30 00:28:25;;;;;;;42.22;7.40;;;;;;;;;;4969297;28;20039;-65
2022/01/30 00:30:51;;;;;;;39.00;6.35;;;;;;;;;;4965972;28;20102;-65
2022/01/30 00:33:17;;;;;;;39.05;6.32;;;;;;;;;;4964419;28;20385;-65
2022/01/30 00:35:43;;;;;;;45.17;6.65;;;;;;;;;;4967200;28;20054;-67
2022/01/30 00:38:15;;;;;;;39.13;6.30;;;;;;;;;;4963188;28;20027;-65
2022/01/30 00:40:41;;;;;;;46.28;8.25;;;;;;;;;;4959653;28;20028;-65
2022/01/30 00:43:07;;;;;;;44.83;6.75;;;;;;;;;;4964016;28;20038;-67
2022/01/30 00:45:33;;;;;;;54.92;6.95;;;;;;;;;;4962542;28;20041;-67
2022/01/30 00:47:59;;;;;;;56.28;7.35;;;;;;;;;;4969553;28;20035;-66
2022/01/30 00:50:25;;;;;;;51.47;6.65;;;;;;;;;;4968713;28;20030;-66
2022/01/30 00:52:55;;;;;;;46.50;7.15;;;;;;;;;;4960328;28;20503;-66
2022/01/30 00:55:28;;;;;;;47.67;6.18;;;;;;;;;;4968327;28;20031;-66
2022/01/30 00:57:54;;;;;;;37.33;5.22;;;;;;;;;;4969971;28;20158;-66
2022/01/30 01:00:21;;;;;;;45.22;6.93;;;;;;;;;;4964220;28;20023;-66
2022/01/30 01:02:47;;;;;;;43.63;6.50;;;;;;;;;;4963781;28;20483;-67
2022/01/30 01:05:14;;;;;;;43.90;5.43;;;;;;;;;;4960716;28;20027;-67
2022/01/30 01:07:45;;;;;;;44.72;7.30;;;;;;;;;;4976206;28;20226;-66
2022/01/30 01:10:22;;;;;;;39.83;6.85;;;;;;;;;;4967747;28;20042;-67
2022/01/30 01:23:43;;;;;;;33.88;4.57;;;;;;;;;;4963015;28;20041;-65
2022/01/30 01:26:09;;;;;;;49.13;5.93;;;;;;;;;;4959910;28;20074;-66
2022/01/30 01:28:35;;;;;;;37.42;5.43;;;;;;;;;;4966386;28;20425;-65
2022/01/30 01:31:02;;;;;;;46.38;6.13;;;;;;;;;;4956606;28;20031;-65
2022/01/30 01:33:40;;;;;;;41.08;5.55;;;;;;;;;;4961136;28;20032;-66
2022/01/30 01:36:06;;;;;;;37.33;5.50;;;;;;;;;;4959429;28;20034;-66
2022/01/30 01:38:32;;;;;;;41.80;5.05;;;;;;;;;;4959740;28;20163;-66
2022/01/30 01:40:58;;;;;;;41.88;5.53;;;;;;;;;;4959673;28;20105;-66
2022/01/30 01:43:27;;;;;;;36.67;5.90;;;;;;;;;;4955489;28;20035;-66
2022/01/30 01:45:55;;;;;;;39.78;6.10;;;;;;;;;;4961526;28;20046;-66
2022/01/30 01:48:21;;;;;;;47.35;7.95;;;;;;;;;;4966840;28;20557;-66
2022/01/30 01:51:04;;;;;;;37.05;6.57;;;;;;;;;;4959006;28;20049;-66
2022/01/30 01:53:30;;;;;;;35.25;5.38;;;;;;;;;;4958979;28;20039;-65
2022/01/30 01:55:56;;;;;;;38.47;5.07;;;;;;;;;;4959358;28;20166;-66
2022/01/30 01:58:29;;;;;;;55.47;7.57;;;;;;;;;;4962486;28;20110;-65
2022/01/30 02:00:55;;;;;;;34.17;4.97;;;;;;;;;;4966634;28;20503;-65
2022/01/30 02:03:24;;;;;;;42.53;6.50;;;;;;;;;;4964722;28;20124;-64
2022/01/30 02:05:55;;;;;;;35.30;5.53;;;;;;;;;;4978468;28;20109;-66
2022/01/30 02:08:34;;;;;;;36.13;5.88;;;;;;;;;;4965846;28;20501;-66
2022/01/30 02:14:02;;;;;;;32.95;3.42;;;;;;;;;;4953201;28;20126;-66
2022/01/30 02:27:00;;;;;;;23.40;3.78;;;;;;;;;;4957055;28;20066;-66
2022/01/30 02:29:26;;;;;;;28.63;4.50;;;;;;;;;;4954973;28;20035;-65
2022/01/30 02:31:56;;;;;;;34.50;4.47;;;;;;;;;;4960300;28;20023;-65
2022/01/30 02:34:32;;;;;;;36.40;4.90;;;;;;;;;;4966780;28;20039;-66
2022/01/30 02:36:58;;;;;;;29.52;4.97;;;;;;;;;;4958913;28;20488;-65
2022/01/30 02:39:25;;;;;;;30.17;3.72;;;;;;;;;;4961245;28;20473;-65
2022/01/30 02:41:52;;;;;;;35.30;5.63;;;;;;;;;;4961956;28;20038;-65
2022/01/30 02:44:31;;;;;;;29.42;3.80;;;;;;;;;;4955372;28;20134;-65
2022/01/30 02:47:01;;;;;;;27.58;3.97;;;;;;;;;;4959653;28;20039;-65
2022/01/30 02:49:41;;;;;;;24.95;4.53;;;;;;;;;;4955148;28;20073;-65
2022/01/30 02:52:09;;;;;;;26.40;4.27;;;;;;;;;;4957180;28;20118;-65
2022/01/30 02:54:35;;;;;;;32.53;3.85;;;;;;;;;;4955352;28;20810;-65
2022/01/30 02:57:01;;;;;;;34.03;3.95;;;;;;;;;;4954624;28;20031;-65
2022/01/30 02:59:27;;;;;;;27.73;4.05;;;;;;;;;;4956254;28;20024;-65
2022/01/30 03:01:53;;;;;;;26.15;3.40;;;;;;;;;;4963393;28;20031;-66
2022/01/30 03:04:19;;;;;;;27.10;3.45;;;;;;;;;;4955843;28;20046;-65
2022/01/30 03:06:46;;;;;;;27.23;4.13;;;;;;;;;;4960266;28;20069;-65
2022/01/30 03:09:12;;;;;;;23.27;3.90;;;;;;;;;;4962761;28;20023;-68
2022/01/30 03:11:38;;;;;;;30.80;3.60;;;;;;;;;;4961833;28;20398;-66
2022/01/30 03:14:05;;;;;;;25.52;3.47;;;;;;;;;;4962136;28;20481;-66
2022/01/30 03:16:31;;;;;;;22.88;3.45;;;;;;;;;;4959070;28;20327;-66
2022/01/30 03:18:57;;;;;;;30.20;4.32;;;;;;;;;;4953911;28;20468;-66
2022/01/30 03:21:23;;;;;;;30.90;4.15;;;;;;;;;;4957254;28;20102;-66
2022/01/30 03:23:49;;;;;;;30.60;3.80;;;;;;;;;;4967941;28;20074;-66
2022/01/30 03:26:16;;;;;;;21.83;3.28;;;;;;;;;;4960168;28;20035;-66
2022/01/30 03:28:45;;;;;;;31.65;4.13;;;;;;;;;;4975127;28;20046;-65
2022/01/30 03:31:12;;;;;;;23.63;2.88;;;;;;;;;;4958363;28;20511;-66
2022/01/30 03:33:39;;;;;;;24.30;3.40;;;;;;;;;;4957177;28;20050;-66
2022/01/30 03:36:05;;;;;;;21.88;3.47;;;;;;;;;;4960630;28;20039;-66
2022/01/30 03:38:31;;;;;;;24.58;3.35;;;;;;;;;;4954297;28;20082;-66
2022/01/30 03:40:58;;;;;;;25.30;3.40;;;;;;;;;;4961749;28;20057;-66
2022/01/30 03:43:24;;;;;;;19.88;3.00;;;;;;;;;;4955963;28;20477;-66
2022/01/30 03:45:50;;;;;;;21.20;3.00;;;;;;;;;;4955265;28;20038;-66
2022/01/30 03:48:16;;;;;;;20.83;5.13;;;;;;;;;;4954134;28;20042;-67
2022/01/30 03:50:43;;;;;;;25.88;3.97;;;;;;;;;;4956521;28;20183;-66
2022/01/30 03:53:09;;;;;;;30.02;4.00;;;;;;;;;;4957794;28;20114;-66
2022/01/30 03:55:35;;;;;;;20.92;4.22;;;;;;;;;;4959421;28;20035;-66
2022/01/30 03:58:01;;;;;;;29.80;4.35;;;;;;;;;;4967113;28;20101;-66
2022/01/30 04:00:28;;;;;;;26.77;3.42;;;;;;;;;;4966755;28;20038;-65
2022/01/30 04:02:55;;;;;;;32.08;3.72;;;;;;;;;;4965612;28;20059;-66
2022/01/30 04:05:21;;;;;;;22.42;3.90;;;;;;;;;;4956142;28;20505;-66
2022/01/30 04:07:47;;;;;;;26.05;4.50;;;;;;;;;;4961870;28;20179;-66
2022/01/30 04:10:13;;;;;;;32.50;3.42;;;;;;;;;;4950952;28;20402;-65
2022/01/30 04:12:40;;;;;;;27.67;3.95;;;;;;;;;;4962886;28;20028;-66
2022/01/30 04:15:06;;;;;;;23.75;3.47;;;;;;;;;;4954288;28;20027;-66
2022/01/30 04:17:33;;;;;;;28.60;4.32;;;;;;;;;;4991299;28;20114;-66
2022/01/30 04:19:59;;;;;;;32.30;3.42;;;;;;;;;;4956311;28;20050;-65
2022/01/30 04:22:25;;;;;;;25.30;3.90;;;;;;;;;;4967844;28;20046;-66
2022/01/30 04:24:51;;;;;;;27.67;3.97;;;;;;;;;;4959216;28;20035;-67
2022/01/30 04:27:17;;;;;;;25.10;3.42;;;;;;;;;;4964136;28;20037;-66
2022/01/30 04:29:43;;;;;;;30.58;3.83;;;;;;;;;;4957533;28;20063;-66
2022/01/30 04:32:12;;;;;;;27.23;4.43;;;;;;;;;;4964744;28;20071;-66
2022/01/30 04:34:38;;;;;;;23.02;3.80;;;;;;;;;;4959581;28;20082;-66
2022/01/30 04:37:12;;;;;;;33.83;4.95;;;;;;;;;;4957641;28;20522;-67
2022/01/30 04:40:11;;;;;;;33.17;4.55;;;;;;;;;;4961932;28;20023;-66
2022/01/30 04:53:50;;;;;;;22.75;4.47;;;;;;;;;;4966666;28;20046;-66
2022/01/30 04:59:11;;;;;;;;;;;;;;;;;;4970289;28;20381;-66
2022/01/30 05:09:22;;;;;;;31.17;6.00;;;;;;;;;;4959736;28;20039;-65
2022/01/30 05:11:48;;;;;;;33.40;4.63;;;;;;;;;;4962519;28;20085;-65
2022/01/30 05:14:15;;;;;;;41.53;5.70;;;;;;;;;;4963406;28;20465;-65
2022/01/30 05:16:41;;;;;;;28.05;4.53;;;;;;;;;;4961773;28;20031;-65
2022/01/30 05:19:07;;;;;;;27.73;4.35;;;;;;;;;;4958046;28;20117;-65
2022/01/30 05:21:33;;;;;;;29.27;3.88;;;;;;;;;;4978684;28;20106;-66
2022/01/30 05:23:59;;;;;;;35.60;5.30;;;;;;;;;;4961103;28;20023;-66
2022/01/30 05:26:27;;;;;;;40.03;4.75;;;;;;;;;;4960074;28;20050;-65
2022/01/30 05:28:53;;;;;;;32.35;4.18;;;;;;;;;;4961320;28;20079;-66
2022/01/30 05:31:19;;;;;;;38.75;4.90;;;;;;;;;;4960354;28;20073;-66
2022/01/30 05:33:45;;;;;;;30.95;4.53;;;;;;;;;;4964007;28;20042;-66
2022/01/30 05:36:13;;;;;;;40.88;5.75;;;;;;;;;;4968958;28;21574;-67
2022/01/30 05:38:39;;;;;;;37.20;5.00;;;;;;;;;;4957312;28;20065;-66
2022/01/30 05:41:05;;;;;;;39.42;6.30;;;;;;;;;;4960898;28;20184;-66
2022/01/30 05:43:33;;;;;;;27.65;5.93;;;;;;;;;;4964063;28;21457;-65
2022/01/30 05:46:14;;;;;;;38.30;4.93;;;;;;;;;;4957982;28;20027;-65
2022/01/30 05:48:40;;;;;;;36.95;5.45;;;;;;;;;;4962670;28;20044;-65
2022/01/30 05:51:07;;;;;;;39.00;4.55;;;;;;;;;;4959187;28;20114;-66
2022/01/30 05:53:40;;;;;;;36.83;5.95;;;;;;;;;;4961727;28;20023;-66
2022/01/30 05:56:11;;;;;;;40.22;5.57;;;;;;;;;;4965685;28;20027;-65
2022/01/30 05:58:37;;;;;;;39.33;5.75;;;;;;;;;;4954860;28;20031;-66
2022/01/30 06:01:03;;;;;;;39.10;5.80;;;;;;;;;;4961629;28;20054;-66
2022/01/30 06:03:29;;;;;;;37.33;5.25;;;;;;;;;;4977106;28;20540;-65
2022/01/30 06:05:55;;;;;;;32.92;4.93;;;;;;;;;;4960091;28;20039;-66
2022/01/30 06:08:44;;;;;;;23.23;5.22;;;;;;;;;;4965942;28;20114;-66
2022/01/30 06:11:11;;;;;;;32.63;4.35;;;;;;;;;;4964219;28;20072;-66
2022/01/30 06:13:37;;;;;;;40.33;5.57;;;;;;;;;;4965322;28;20034;-66
2022/01/30 06:16:03;;;;;;;29.95;5.15;;;;;;;;;;4964630;28;20122;-66
2022/01/30 06:18:29;;;;;;;32.53;5.13;;;;;;;;;;4962140;28;20031;-66
2022/01/30 06:20:55;;;;;;;31.95;4.70;;;;;;;;;;4956511;28;20031;-65
2022/01/30 06:23:26;;;;;;;32.85;5.22;;;;;;;;;;4960860;28;20031;-65
2022/01/30 06:25:52;;;;;;;40.23;5.17;;;;;;;;;;4961335;28;20046;-65
2022/01/30 06:28:18;;;;;;;35.30;5.30;;;;;;;;;;4967772;28;20212;-65
2022/01/30 06:30:44;;;;;;;43.45;5.93;;;;;;;;;;4957278;28;20589;-64
2022/01/30 06:33:11;;;;;;;41.78;5.00;;;;;;;;;;4960321;28;20031;-65
2022/01/30 06:35:37;;;;;;;40.22;5.90;;;;;;;;;;4959229;28;20023;-64
2022/01/30 06:38:03;;;;;;;29.77;4.60;;;;;;;;;;4961590;28;20097;-65
2022/01/30 06:40:29;;;;;;;31.98;4.90;;;;;;;;;;4952938;28;20540;-65
2022/01/30 06:42:56;;;;;;;37.55;5.18;;;;;;;;;;4961185;28;20155;-65
2022/01/30 06:45:22;;;;;;;43.85;7.05;;;;;;;;;;4957716;28;20031;-66
2022/01/30 06:47:48;;;;;;;47.42;6.07;;;;;;;;;;4961711;28;20038;-66
2022/01/30 06:50:14;;;;;;;45.58;4.80;;;;;;;;;;4957586;28;20035;-66
2022/01/30 06:52:41;;;;;;;37.72;4.97;;;;;;;;;;4959540;28;20027;-66
2022/01/30 06:55:07;;;;;;;38.97;6.57;;;;;;;;;;4953199;28;20055;-65
2022/01/30 06:57:34;;;;;;;42.20;4.88;;;;;;;;;;4958185;28;20191;-67
2022/01/30 07:00:00;;;;;;;36.75;5.10;;;;;;;;;;4959175;28;20031;-66
2022/01/30 07:02:26;;;;;;;44.33;6.00;;;;;;;;;;4954015;28;20051;-66
2022/01/30 07:04:52;;;;;;;35.08;5.07;;;;;;;;;;4957758;28;20059;-66
2022/01/30 07:07:18;;;;;;;47.33;5.70;;;;;;;;;;4965326;28;20027;-66
2022/01/30 07:09:44;;;;;;;44.85;6.28;;;;;;;;;;4955077;28;20560;-66
2022/01/30 07:12:11;;;;;;;45.80;6.68;;;;;;;;;;4954306;28;20066;-66
2022/01/30 07:14:37;;;;;;;40.28;6.43;;;;;;;;;;4958246;28;20057;-66
2022/01/30 07:17:03;;;;;;;37.60;5.05;;;;;;;;;;4959419;28;20078;-66
2022/01/30 07:19:29;;;;;;;48.10;5.75;;;;;;;;;;4963418;28;20031;-66
2022/01/30 07:21:55;;;;;;;41.03;6.97;;;;;;;;;;4955047;28;20031;-66
2022/01/30 07:24:21;;;;;;;31.70;6.22;;;;;;;;;;4953750;28;20054;-65
2022/01/30 07:26:47;;;;;;;38.75;5.75;;;;;;;;;;4956355;28;20502;-67
2022/01/30 07:29:13;;;;;;;34.83;5.22;;;;;;;;;;4958874;28;20039;-67
2022/01/30 07:31:39;;;;;;;40.83;6.47;;;;;;;;;;4957998;28;20029;-67
2022/01/30 07:34:05;;;;;;;51.13;6.55;;;;;;;;;;4966946;28;20121;-67
2022/01/30 07:36:34;;;;;;;42.63;5.30;;;;;;;;;;4968050;28;20031;-67
2022/01/30 07:39:00;;;;;;;42.17;5.57;;;;;;;;;;4965717;28;20102;-67
2022/01/30 07:41:26;;;;;;;40.72;6.35;;;;;;;;;;4966720;28;20038;-67
2022/01/30 07:43:52;;;;;;;53.53;7.07;;;;;;;;;;4969820;28;20042;-66
2022/01/30 07:46:18;;;;;;;37.00;5.18;;;;;;;;;;4963883;28;20088;-66
2022/01/30 07:48:44;;;;;;;52.47;6.57;;;;;;;;;;4966710;28;20046;-67
2022/01/30 07:51:10;;;;;;;38.22;6.43;;;;;;;;;;4960994;28;20040;-66
2022/01/30 07:53:36;;;;;;;40.35;5.05;;;;;;;;;;4960175;28;20050;-67
2022/01/30 07:56:03;;;;;;;46.03;5.53;;;;;;;;;;4955049;28;20034;-66
2022/01/30 07:58:29;;;;;;;46.53;5.55;;;;;;;;;;4958839;28;20186;-66
2022/01/30 08:00:55;;;;;;;35.03;5.28;;;;;;;;;;4957926;28;20043;-66
2022/01/30 08:03:22;;;;;;;45.78;6.72;;;;;;;;;;4958747;28;20058;-67
2022/01/30 08:05:48;;;;;;;53.03;7.10;;;;;;;;;;4959937;28;20480;-66
2022/01/30 08:08:15;;;;;;;41.08;6.25;;;;;;;;;;4957507;28;20039;-66
2022/01/30 08:10:41;;;;;;;44.17;6.57;;;;;;;;;;4959404;28;20051;-67
2022/01/30 08:13:07;;;;;;;46.10;7.03;;;;;;;;;;4955506;28;20189;-66
2022/01/30 08:15:33;;;;;;;39.05;5.72;;;;;;;;;;4961665;28;20126;-66
2022/01/30 08:17:59;;;;;;;55.90;6.78;;;;;;;;;;4959560;28;20499;-66
2022/01/30 08:20:27;;;;;;;47.95;7.57;;;;;;;;;;4967562;28;20031;-66
2022/01/30 08:22:53;;;;;;;47.03;5.68;;;;;;;;;;4961510;28;20031;-66
2022/01/30 08:25:20;;;;;;;39.10;5.20;;;;;;;;;;4966768;28;20031;-66
2022/01/30 08:27:48;;;;;;;50.58;6.88;;;;;;;;;;4966261;28;20109;-67
2022/01/30 08:30:15;;;;;;;38.35;5.85;;;;;;;;;;4971966;28;20038;-68
2022/01/30 08:32:42;;;;;;;52.15;6.18;;;;;;;;;;4966783;28;20035;-67
2022/01/30 08:35:09;;;;;;;46.75;6.85;;;;;;;;;;4985439;28;20038;-67
2022/01/30 08:37:36;;;;;;;43.90;6.28;;;;;;;;;;4981004;28;20035;-65
2022/01/30 08:40:17;;;;;;;39.60;5.60;;;;;;;;;;4973541;28;20050;-66
2022/01/30 08:42:43;;;;;;;42.13;5.88;;;;;;;;;;4958462;28;20043;-66
2022/01/30 08:45:10;;;;;;;42.20;6.30;;;;;;;;;;4954855;28;20038;-67
2022/01/30 08:47:37;;;;;;;44.90;6.47;;;;;;;;;;4954946;28;20023;-65
2022/01/30 08:50:03;;;;;;;45.38;6.07;;;;;;;;;;4955083;28;20039;-66
2022/01/30 08:52:29;;;;;;;34.83;5.22;;;;;;;;;;4954431;28;20043;-66
2022/01/30 08:54:55;;;;;;;48.40;5.97;;;;;;;;;;4954475;28;20039;-67
2022/01/30 08:57:21;;;;;;;57.03;7.43;;;;;;;;;;4954023;28;20051;-66
2022/01/30 08:59:47;;;;;;;46.88;6.05;;;;;;;;;;4954449;28;20029;-67
2022/01/30 09:02:14;;;;;;;40.60;6.57;;;;;;;;;;4954453;28;20118;-66
2022/01/30 09:04:40;;;;;;;44.28;7.53;;;;;;;;;;4957291;28;20032;-66
2022/01/30 09:07:06;;;;;;;42.22;7.13;;;;;;;;;;4972257;28;20023;-66
2022/01/30 09:09:33;;;;;;;41.10;6.93;;;;;;;;;;4968900;28;20393;-66
2022/01/30 09:11:59;;;;;;;41.10;6.38;;;;;;;;;;4954143;28;20473;-67
2022/01/30 09:14:27;;;;;;;50.60;8.32;;;;;;;;;;4955297;28;20031;-66
2022/01/30 09:16:53;;;;;;;40.80;6.63;;;;;;;;;;4979469;28;20509;-67
2022/01/30 09:19:19;;;;;;;36.92;5.68;;;;;;;;;;4959040;28;20019;-67
2022/01/30 09:21:46;;;;;;;53.00;7.05;;;;;;;;;;4968040;28;20034;-66
2022/01/30 09:24:12;;;;;;;52.40;7.65;;;;;;;;;;4972349;28;20479;-66
2022/01/30 09:26:38;;;;;;;44.92;6.10;;;;;;;;;;4967007;28;20134;-66
2022/01/30 09:29:04;;;;;;;38.25;6.63;;;;;;;;;;4970604;28;20054;-65
2022/01/30 09:31:30;;;;;;;50.65;7.88;;;;;;;;;;4957532;28;20110;-65
2022/01/30 09:33:56;;;;;;;48.92;8.32;;;;;;;;;;4970760;28;20031;-65
2022/01/30 09:36:22;;;;;;;48.17;7.90;;;;;;;;;;4973382;28;20031;-67
2022/01/30 09:38:50;;;;;;;38.63;6.03;;;;;;;;;;4956903;28;20038;-67
2022/01/30 09:41:16;;;;;;;35.05;5.93;;;;;;;;;;4965639;28;20058;-67
2022/01/30 09:43:44;;;;;;;42.97;6.85;;;;;;;;;;4969513;28;20059;-67
2022/01/30 09:46:11;;;;;;;42.85;6.60;;;;;;;;;;4963469;28;20023;-66
2022/01/30 09:48:38;;;;;;;45.85;5.93;;;;;;;;;;4971579;28;20041;-66
2022/01/30 09:51:07;;;;;;;47.15;7.78;;;;;;;;;;4962298;28;20039;-66
2022/01/30 09:53:33;;;;;;;38.15;5.80;;;;;;;;;;4953798;28;20698;-67
2022/01/30 09:56:03;;;;;;;49.90;7.05;;;;;;;;;;4954402;28;20537;-66
2022/01/30 09:58:29;;;;;;;39.10;6.05;;;;;;;;;;4953552;28;20023;-66
2022/01/30 10:00:55;;;;;;;52.47;6.65;;;;;;;;;;4954250;28;20031;-67
2022/01/30 10:03:26;;;;;;;39.05;5.35;;;;;;;;;;4953158;28;20500;-65
2022/01/30 10:06:04;;;;;;;36.67;4.90;;;;;;;;;;4964483;28;20086;-66
2022/01/30 10:08:30;;;;;;;45.83;7.65;;;;;;;;;;4973339;28;20035;-67
2022/01/30 10:11:00;;;;;;;45.03;6.60;;;;;;;;;;4972951;28;20049;-67
2022/01/30 10:13:30;;;;;;;45.10;5.63;;;;;;;;;;4972288;28;20035;-66
2022/01/30 10:15:57;;;;;;;37.22;5.93;;;;;;;;;;4972624;28;20122;-66
2022/01/30 10:18:26;;;;;;;42.05;7.63;;;;;;;;;;4972368;28;20054;-66
2022/01/30 10:20:52;;;;;;;38.85;6.07;;;;;;;;;;4960548;28;20111;-66
2022/01/30 10:23:18;;;;;;;52.05;8.00;;;;;;;;;;4962773;28;20142;-66
2022/01/30 10:25:48;;;;;;;39.20;7.05;;;;;;;;;;4952963;28;20094;-66
2022/01/30 10:28:16;;;;;;;47.47;7.63;;;;;;;;;;4954191;28;20050;-66
2022/01/30 10:30:42;;;;;;;46.90;7.93;;;;;;;;;;4972741;28;20058;-66
2022/01/30 10:33:14;;;;;;;46.17;7.40;;;;;;;;;;4972146;28;20058;-65
2022/01/30 10:35:47;;;;;;;37.67;6.95;;;;;;;;;;4972696;28;20102;-66
2022/01/30 10:38:40;;;;;;;51.15;8.98;;;;;;;;;;4971073;28;20461;-65
2022/01/30 10:41:12;;;;;;;42.22;6.13;;;;;;;;;;4971943;28;20030;-65
2022/01/30 10:43:49;;;;;;;47.10;6.80;;;;;;;;;;4959956;28;20185;-66
2022/01/30 10:46:21;;;;;;;52.50;8.80;;;;;;;;;;4952912;28;20449;-67
2022/01/30 10:48:51;;;;;;;39.35;7.15;;;;;;;;;;4953674;28;20031;-67
2022/01/30 10:51:17;;;;;;;39.88;8.10;;;;;;;;;;4952891;28;20031;-65
2022/01/30 10:53:43;;;;;;;48.42;7.68;;;;;;;;;;4952978;28;20029;-66
2022/01/30 10:56:19;;;;;;;44.85;7.05;;;;;;;;;;4952042;28;20046;-66
2022/01/30 10:59:04;;;;;;;54.63;7.78;;;;;;;;;;4952155;28;20111;-66
2022/01/30 11:01:30;;;;;;;45.58;6.35;;;;;;;;;;4962574;28;20058;-65
2022/01/30 11:04:00;;;;;;;41.17;6.63;;;;;;;;;;4972260;28;20074;-66
2022/01/30 11:06:27;;;;;;;41.00;8.07;;;;;;;;;;4971762;28;20089;-66
2022/01/30 11:08:54;;;;;;;42.60;7.80;;;;;;;;;;4972024;28;20145;-66
2022/01/30 11:19:20;;;;;;;48.28;8.32;;;;;;;;;;4952619;29;20409;-66
2022/01/30 11:21:58;;;;;;;48.67;7.28;;;;;;;;;;4967552;28;20050;-65
2022/01/30 11:24:25;;;;;;;51.38;7.70;;;;;;;;;;4971249;28;20042;-67
2022/01/30 11:26:51;;;;;;;44.00;6.75;;;;;;;;;;4971517;28;20027;-67
2022/01/30 11:29:20;;;;;;;41.08;7.03;;;;;;;;;;4971341;28;20058;-66
2022/01/30 11:31:49;;;;;;;40.97;7.70;;;;;;;;;;4969753;28;20039;-67
2022/01/30 11:34:15;;;;;;;54.97;8.63;;;;;;;;;;4970143;28;20031;-66
2022/01/30 11:36:42;;;;;;;44.25;7.25;;;;;;;;;;4971022;28;20034;-65
2022/01/30 11:39:09;;;;;;;31.95;5.78;;;;;;;;;;4971228;28;20086;-66
2022/01/30 11:41:36;;;;;;;37.10;6.68;;;;;;;;;;4971404;28;20119;-67
2022/01/30 11:44:20;;;;;;;42.97;7.13;;;;;;;;;;4971028;28;20114;-64
2022/01/30 11:46:53;;;;;;;36.95;6.40;;;;;;;;;;4954052;28;20039;-67
2022/01/30 11:49:19;;;;;;;41.50;7.82;;;;;;;;;;4951454;29;20110;-65
2022/01/30 11:51:49;;;;;;;46.92;6.93;;;;;;;;;;4952238;29;20113;-66
2022/01/30 11:54:52;;;;;;;45.10;8.00;;;;;;;;;;4951283;28;20031;-66
2022/01/30 11:57:18;;;;;;;47.03;6.22;;;;;;;;;;4948922;29;20088;-65
2022/01/30 11:59:45;;;;;;;51.17;8.02;;;;;;;;;;4952986;28;20505;-65
2022/01/30 12:02:24;;;;;;;39.08;5.22;;;;;;;;;;4971149;28;20034;-68
2022/01/30 12:05:07;;;;;;;49.08;6.13;;;;;;;;;;4971099;28;20031;-65
2022/01/30 12:07:44;;;;;;;42.95;7.22;;;;;;;;;;4970997;28;20031;-66
2022/01/30 12:10:16;;;;;;;40.45;6.85;;;;;;;;;;4970905;28;20058;-67
2022/01/30 12:12:52;;;;;;;40.63;6.75;;;;;;;;;;4971185;28;20078;-65
2022/01/30 12:15:34;;;;;;;45.38;6.93;;;;;;;;;;4968259;28;20247;-66
2022/01/30 12:18:00;;;;;;;50.30;8.43;;;;;;;;;;4970784;28;20084;-66
2022/01/30 12:20:28;;;;;;;42.10;8.05;;;;;;;;;;4971075;28;20038;-68
2022/01/30 12:22:54;;;;;;;45.83;6.75;;;;;;;;;;4970737;28;20035;-66
2022/01/30 12:25:20;;;;;;;48.55;10.40;;;;;;;;;;4971285;28;20031;-66
2022/01/30 12:27:48;;;;;;;48.33;9.18;;;;;;;;;;4970949;28;20461;-67
2022/01/30 12:30:34;;;;;;;45.03;7.65;;;;;;;;;;4960798;28;20093;-66
2022/01/30 12:33:01;;;;;;;39.42;6.15;;;;;;;;;;4951765;28;20067;-66
2022/01/30 12:35:28;;;;;;;44.40;6.65;;;;;;;;;;4958699;28;20110;-67
2022/01/30 12:37:54;;;;;;;36.67;6.32;;;;;;;;;;4970495;28;20027;-67
2022/01/30 12:40:21;;;;;;;44.38;7.38;;;;;;;;;;4970680;28;20026;-66
2022/01/30 12:42:48;;;;;;;46.97;6.95;;;;;;;;;;4971269;28;20031;-65
2022/01/30 12:45:15;;;;;;;39.22;6.45;;;;;;;;;;4964617;28;20039;-66
2022/01/30 12:47:57;;;;;;;47.88;7.55;;;;;;;;;;4952232;28;20031;-65
2022/01/30 12:50:33;;;;;;;42.80;7.22;;;;;;;;;;4959461;28;20030;-65
2022/01/30 12:53:01;;;;;;;54.10;7.80;;;;;;;;;;4963931;28;20039;-66
2022/01/30 12:55:27;;;;;;;43.10;6.35;;;;;;;;;;4965171;28;20036;-65
2022/01/30 12:57:54;;;;;;;54.50;7.25;;;;;;;;;;4959395;28;20023;-65
2022/01/30 13:00:21;;;;;;;39.70;6.55;;;;;;;;;;4956789;28;20035;-66
2022/01/30 13:03:01;;;;;;;53.08;6.82;;;;;;;;;;4953677;28;20039;-66
2022/01/30 13:05:28;;;;;;;63.55;13.88;;;;;;;;;;4955687;28;20090;-66
2022/01/30 13:07:55;;;;;;;49.47;9.48;;;;;;;;;;4957935;28;20031;-66
2022/01/30 13:10:22;;;;;;;42.67;6.80;;;;;;;;;;4963211;28;20051;-65
2022/01/30 13:12:49;;;;;;;42.33;6.18;;;;;;;;;;4963773;28;20074;-66
2022/01/30 13:15:16;;;;;;;41.28;6.13;;;;;;;;;;4961543;28;20031;-66
2022/01/30 13:17:42;;;;;;;37.78;6.45;;;;;;;;;;4957919;28;20078;-65
2022/01/30 13:20:09;;;;;;;40.97;7.55;;;;;;;;;;4962920;28;20035;-64
2022/01/30 13:22:38;;;;;;;38.70;7.38;;;;;;;;;;4967384;28;20030;-66
2022/01/30 13:25:30;;;;;;;38.00;6.32;;;;;;;;;;4956164;28;20031;-66
2022/01/30 13:27:56;;;;;;;44.28;6.18;;;;;;;;;;4959629;28;20035;-66
2022/01/30 13:30:26;;;;;;;37.17;7.13;;;;;;;;;;4967618;28;20238;-66
2022/01/30 13:32:53;;;;;;;44.10;6.57;;;;;;;;;;4969046;28;20034;-66
2022/01/30 13:35:21;;;;;;;49.47;6.35;;;;;;;;;;4978625;28;20328;-68
2022/01/30 13:37:48;;;;;;;36.65;6.28;;;;;;;;;;4966008;28;20027;-66
2022/01/30 13:40:21;;;;;;;26.20;5.32;;;;;;;;;;4966565;28;20037;-67
2022/01/30 13:43:10;;;;;;;35.28;5.97;;;;;;;;;;4966478;28;20031;-67
2022/01/30 13:48:12;;;;;;;32.88;5.18;;;;;;;;;;4966745;28;20085;-65
2022/01/30 13:50:53;;;;;;;40.60;5.93;;;;;;;;;;4968475;28;20043;-65
2022/01/30 13:53:22;;;;;;;58.53;7.63;;;;;;;;;;4964651;28;20034;-66
2022/01/30 13:55:51;;;;;;;43.00;6.72;;;;;;;;;;4964125;28;20062;-67
2022/01/30 13:58:19;;;;;;;36.75;6.32;;;;;;;;;;4967759;28;20035;-66
2022/01/30 14:00:45;;;;;;;43.40;6.38;;;;;;;;;;4967296;28;20031;-66
2022/01/30 14:03:21;;;;;;;46.40;6.00;;;;;;;;;;4965318;28;20477;-67
2022/01/30 14:05:47;;;;;;;46.25;6.55;;;;;;;;;;4966172;28;20031;-67
2022/01/30 14:08:14;;;;;;;43.92;8.38;;;;;;;;;;4980607;28;20132;-67
2022/01/30 14:10:41;;;;;;;41.70;7.40;;;;;;;;;;4965722;28;20492;-67
2022/01/30 14:13:08;;;;;;;37.40;5.75;;;;;;;;;;4969422;28;20868;-66
2022/01/30 14:15:36;;;;;;;32.42;5.25;;;;;;;;;;4965529;28;20381;-67
2022/01/30 14:18:21;;;;;;;52.60;7.93;;;;;;;;;;4965423;28;20034;-67
2022/01/30 14:20:49;;;;;;;40.75;6.03;;;;;;;;;;4967637;28;20046;-67
2022/01/30 14:23:21;;;;;;;30.70;5.15;;;;;;;;;;4962252;28;20120;-67
2022/01/30 14:25:48;;;;;;;53.50;9.00;;;;;;;;;;4963351;28;20260;-67
2022/01/30 14:28:21;;;;;;;43.40;8.45;;;;;;;;;;4959961;28;20027;-67
2022/01/30 14:30:48;;;;;;;35.75;6.68;;;;;;;;;;4964567;28;20045;-67
2022/01/30 14:33:14;;;;;;;40.40;7.20;;;;;;;;;;4963888;28;20039;-67
2022/01/30 14:35:40;;;;;;;34.75;7.18;;;;;;;;;;4956440;28;20066;-67
2022/01/30 14:38:08;;;;;;;35.15;6.20;;;;;;;;;;4958466;28;20035;-67
2022/01/30 14:40:37;;;;;;;38.67;6.85;;;;;;;;;;4965561;28;20038;-67
2022/01/30 14:43:06;;;;;;;52.95;6.20;;;;;;;;;;4959045;28;20067;-67
2022/01/30 14:45:33;;;;;;;49.35;7.30;;;;;;;;;;4958200;28;20038;-68
2022/01/30 14:48:00;;;;;;;47.53;7.07;;;;;;;;;;4993248;28;20045;-67
2022/01/30 14:50:26;;;;;;;40.45;6.22;;;;;;;;;;4962146;28;20108;-67
2022/01/30 14:52:52;;;;;;;39.83;5.88;;;;;;;;;;4959736;28;20038;-67
2022/01/30 14:55:19;;;;;;;45.15;7.18;;;;;;;;;;4962429;28;20039;-68
2022/01/30 14:57:46;;;;;;;52.22;6.28;;;;;;;;;;4959901;28;20132;-68
2022/01/30 15:00:16;;;;;;;41.30;7.07;;;;;;;;;;4961025;28;20031;-66
2022/01/30 15:02:42;;;;;;;37.70;7.18;;;;;;;;;;4962832;28;20031;-67
2022/01/30 15:05:08;;;;;;;44.60;8.05;;;;;;;;;;4975793;28;20035;-67
2022/01/30 15:07:35;;;;;;;45.20;7.22;;;;;;;;;;4960322;28;20050;-67
2022/01/30 15:10:01;;;;;;;43.00;6.88;;;;;;;;;;4964074;28;20026;-67
2022/01/30 15:12:27;;;;;;;46.42;10.32;;;;;;;;;;4963032;28;20027;-67
2022/01/30 15:14:53;;;;;;;48.88;8.32;;;;;;;;;;4961650;28;20031;-66
2022/01/30 15:17:31;;;;;;;38.08;6.97;;;;;;;;;;4960160;28;20473;-68
2022/01/30 15:19:57;;;;;;;42.53;8.27;;;;;;;;;;4964895;28;20031;-67
2022/01/30 15:22:24;;;;;;;43.00;7.28;;;;;;;;;;4961911;28;20027;-67
2022/01/30 15:24:52;;;;;;;47.67;8.48;;;;;;;;;;4960963;28;20035;-66
2022/01/30 15:27:22;;;;;;;40.83;5.03;;;;;;;;;;4965237;28;20467;-66
2022/01/30 15:29:48;;;;;;;36.97;5.65;;;;;;;;;;4958416;28;20042;-67
2022/01/30 15:32:14;;;;;;;37.10;5.97;;;;;;;;;;4957745;28;20046;-66
2022/01/30 15:34:40;;;;;;;40.75;6.75;;;;;;;;;;4964470;28;20031;-66